createdAt,value
2022-08-17T00:01:53.105Z,95887.97
2022-08-17T00:04:23.530Z,95890.97
2022-08-17T00:06:53.412Z,95891.25
2022-08-17T00:09:21.127Z,95889.31
2022-08-17T00:12:35.527Z,95891.25
2022-08-17T00:14:39.336Z,95884.53
2022-08-17T00:17:09.748Z,95878.28
2022-08-17T00:19:37.445Z,95875.50
2022-08-17T00:22:33.972Z,95879.16
2022-08-17T00:25:05.830Z,95889.09
2022-08-17T00:27:33.618Z,95882.81
2022-08-17T00:30:03.725Z,95879.63
2022-08-17T00:33:23.437Z,95885.44
2022-08-17T00:35:31.794Z,95874.75
2022-08-17T00:38:00.930Z,95875.44
2022-08-17T00:40:40.728Z,95874.56
2022-08-17T00:43:17.453Z,95876.13
2022-08-17T00:45:45.506Z,95873.44
2022-08-17T00:48:23.817Z,95867.94
2022-08-17T00:50:59.653Z,95867.03
2022-08-17T00:53:31.124Z,95868.19
2022-08-17T00:55:59.617Z,95865.06
2022-08-17T00:58:35.428Z,95865.25
2022-08-17T01:01:04.641Z,95870.78
2022-08-17T01:03:32.544Z,95860.25
2022-08-17T01:06:00.889Z,95855.38
2022-08-17T01:08:30.990Z,95856.66
2022-08-17T01:11:01.922Z,95853.34
2022-08-17T01:13:30.369Z,95857.69
2022-08-17T01:16:00.653Z,95861.47
2022-08-17T01:18:28.721Z,95864.59
2022-08-17T01:20:57.662Z,95864.72
2022-08-17T01:23:27.597Z,95869.69
2022-08-17T01:25:56.254Z,95864.16
2022-08-17T01:28:52.389Z,95864.44
2022-08-17T01:31:14.733Z,95869.31
2022-08-17T01:33:43.463Z,95876.13
2022-08-17T01:36:14.236Z,95880.34
2022-08-17T01:38:43.669Z,95881.00
2022-08-17T01:41:17.052Z,95645.84
2022-08-17T01:43:45.822Z,95875.34
2022-08-17T01:46:15.717Z,95884.38
2022-08-17T01:48:47.253Z,95887.53
2022-08-17T01:51:15.633Z,95883.97
2022-08-17T01:53:46.243Z,95882.19
2022-08-17T01:56:15.222Z,95879.28
2022-08-17T01:58:43.183Z,95880.72
2022-08-17T02:01:12.778Z,95882.72
2022-08-17T02:03:41.122Z,95890.94
2022-08-17T02:06:27.851Z,95887.44
2022-08-17T02:09:02.339Z,95888.69
2022-08-17T02:11:32.293Z,95887.53
2022-08-17T02:14:02.496Z,95892.72
2022-08-17T02:16:37.601Z,95899.66
2022-08-17T02:19:09.210Z,95897.41
2022-08-17T02:21:37.208Z,95893.59
2022-08-17T02:24:09.891Z,95891.47
2022-08-17T02:26:37.815Z,95882.03
2022-08-17T02:29:05.459Z,95876.13
2022-08-17T02:31:33.251Z,95878.31
2022-08-17T02:34:04.638Z,95865.03
2022-08-17T02:36:39.057Z,95867.34
2022-08-17T02:39:08.884Z,95872.78
2022-08-17T02:41:36.622Z,95879.88
2022-08-17T02:44:05.777Z,95867.56
2022-08-17T02:46:33.913Z,95872.09
2022-08-17T02:49:03.843Z,95867.41
2022-08-17T02:51:31.952Z,95870.22
2022-08-17T02:54:05.274Z,95871.84
2022-08-17T02:56:49.401Z,95878.91
2022-08-17T02:59:17.003Z,95883.19
2022-08-17T03:01:46.408Z,95858.63
2022-08-17T03:04:14.198Z,95863.16
2022-08-17T03:06:44.640Z,95874.88
2022-08-17T03:09:13.236Z,95879.16
2022-08-17T03:11:40.927Z,95891.50
2022-08-17T03:14:10.391Z,95892.19
2022-08-17T03:16:38.626Z,95897.31
2022-08-17T03:19:08.449Z,95891.81
2022-08-17T03:21:36.482Z,95893.84
2022-08-17T03:24:08.738Z,95896.09
2022-08-17T03:26:36.886Z,95901.56
2022-08-17T03:29:04.814Z,95907.28
2022-08-17T03:31:33.989Z,95914.28
2022-08-17T03:34:05.070Z,95911.81
2022-08-17T03:36:36.038Z,95909.28
2022-08-17T03:39:06.995Z,95909.25
2022-08-17T03:41:34.842Z,95908.38
2022-08-17T03:44:02.985Z,95915.94
2022-08-17T03:46:48.362Z,95920.03
2022-08-17T03:49:35.186Z,95926.59
2022-08-17T03:52:20.231Z,95927.16
2022-08-17T03:55:05.597Z,95917.34
2022-08-17T03:57:33.365Z,95922.69
2022-08-17T04:00:01.163Z,95917.50
2022-08-17T04:02:32.542Z,95914.91
2022-08-17T04:05:04.242Z,95906.00
2022-08-17T04:07:32.674Z,95909.56
2022-08-17T04:10:00.934Z,95914.63
2022-08-17T04:12:31.171Z,95915.31
2022-08-17T04:14:59.113Z,95735.34
2022-08-17T04:17:34.131Z,95914.88
2022-08-17T04:20:03.515Z,95918.97
2022-08-17T04:22:34.215Z,95909.50
2022-08-17T04:25:03.730Z,95930.25
2022-08-17T04:27:33.557Z,95921.47
2022-08-17T04:30:01.962Z,95920.75
2022-08-17T04:33:05.049Z,95928.88
2022-08-17T04:35:23.661Z,95930.34
2022-08-17T04:37:55.032Z,95932.84
2022-08-17T04:40:39.903Z,95945.03
2022-08-17T04:43:08.820Z,95955.56
2022-08-17T04:45:39.858Z,95960.44
2022-08-17T04:48:10.614Z,95957.28
2022-08-17T04:50:44.669Z,95975.16
2022-08-17T04:53:12.826Z,95963.81
2022-08-17T04:55:41.100Z,95966.59
2022-08-17T04:58:09.141Z,95967.03
2022-08-17T05:00:40.514Z,95957.28
2022-08-17T05:03:13.447Z,95969.16
2022-08-17T05:05:43.573Z,95969.16
2022-08-17T05:08:11.356Z,95946.88
2022-08-17T05:10:45.162Z,95944.25
2022-08-17T05:13:16.887Z,95943.25
2022-08-17T05:15:48.785Z,95944.53
2022-08-17T05:18:22.329Z,95940.63
2022-08-17T05:20:54.768Z,95951.03
2022-08-17T05:23:42.202Z,95953.59
2022-08-17T05:26:21.969Z,95931.97
2022-08-17T05:28:59.602Z,95927.78
2022-08-17T05:31:31.237Z,95926.22
2022-08-17T05:33:59.372Z,95930.19
2022-08-17T05:36:43.386Z,95970.69
2022-08-17T05:39:24.253Z,95944.63
2022-08-17T05:41:52.534Z,95938.63
2022-08-17T05:44:23.266Z,95931.00
2022-08-17T05:46:51.544Z,95933.59
2022-08-17T05:49:26.142Z,95947.69
2022-08-17T05:52:19.944Z,95946.53
2022-08-17T05:54:53.410Z,95950.78
2022-08-17T05:57:32.721Z,95953.09
2022-08-17T06:00:03.373Z,95952.66
2022-08-17T06:02:37.856Z,95951.81
2022-08-17T06:05:12.561Z,95961.81
2022-08-17T06:07:42.922Z,95963.03
2022-08-17T06:10:14.710Z,95971.56
2022-08-17T06:12:58.744Z,95970.50
2022-08-17T06:15:28.541Z,95980.22
2022-08-17T06:17:58.666Z,95971.34
2022-08-17T06:20:27.991Z,95911.22
2022-08-17T06:22:57.583Z,95978.38
2022-08-17T06:25:32.273Z,95971.00
2022-08-17T06:28:01.106Z,95984.03
2022-08-17T06:30:57.360Z,95989.75
2022-08-17T06:33:21.318Z,95990.50
2022-08-17T06:35:51.323Z,95995.09
2022-08-17T06:38:37.782Z,95996.16
2022-08-17T06:41:12.888Z,96000.88
2022-08-17T06:43:48.195Z,96004.47
2022-08-17T06:46:19.902Z,96003.25
2022-08-17T06:48:48.519Z,95993.88
2022-08-17T06:51:18.053Z,95985.78
2022-08-17T06:53:47.545Z,95978.34
2022-08-17T06:56:20.439Z,95983.25
2022-08-17T06:58:50.078Z,95976.50
2022-08-17T07:01:20.151Z,95971.81
2022-08-17T07:03:55.309Z,95969.16
2022-08-17T07:06:24.632Z,95969.44
2022-08-17T07:08:54.198Z,95971.88
2022-08-17T07:11:29.016Z,95975.31
2022-08-17T07:14:02.135Z,95976.81
2022-08-17T07:16:31.766Z,95978.09
2022-08-17T07:19:00.042Z,95978.28
2022-08-17T07:21:32.118Z,95980.94
2022-08-17T07:24:03.071Z,95984.84
2022-08-17T07:26:33.654Z,95986.34
2022-08-17T07:29:01.750Z,95987.09
2022-08-17T07:31:31.628Z,95994.25
2022-08-17T07:34:00.852Z,96018.34
2022-08-17T07:36:33.842Z,95993.69
2022-08-17T07:39:02.662Z,95990.13
2022-08-17T07:41:57.646Z,95985.78
2022-08-17T07:44:21.121Z,95993.28
2022-08-17T07:47:07.569Z,96003.84
2022-08-17T07:49:37.270Z,96005.28
2022-08-17T07:52:48.128Z,96010.34
2022-08-17T07:54:56.815Z,96013.31
2022-08-17T07:57:36.856Z,96015.69
2022-08-17T08:00:16.849Z,96027.41
2022-08-17T08:02:49.135Z,96012.59
2022-08-17T08:05:30.654Z,96011.53
2022-08-17T08:08:22.495Z,96014.63
2022-08-17T08:10:58.798Z,96029.13
2022-08-17T08:13:28.014Z,96023.19
2022-08-17T08:16:16.710Z,96017.97
2022-08-17T08:18:56.067Z,96025.28
2022-08-17T08:21:30.117Z,96032.78
2022-08-17T08:24:02.357Z,96040.22
2022-08-17T08:26:32.293Z,96040.13
2022-08-17T08:29:03.711Z,96036.13
2022-08-17T08:31:40.167Z,96044.63
2022-08-17T08:34:58.679Z,96059.94
2022-08-17T08:37:16.328Z,96063.28
2022-08-17T08:39:49.125Z,96067.03
2022-08-17T08:42:19.400Z,96095.69
2022-08-17T08:45:00.922Z,96059.78
2022-08-17T08:47:43.786Z,96059.34
2022-08-17T08:50:38.171Z,96061.22
2022-08-17T08:53:09.869Z,96051.13
2022-08-17T08:55:43.968Z,96044.16
2022-08-17T08:58:31.854Z,96049.41
2022-08-17T09:01:16.761Z,96058.41
2022-08-17T09:03:54.845Z,96077.03
2022-08-17T09:06:39.284Z,96079.81
2022-08-17T09:09:22.639Z,96087.59
2022-08-17T09:12:02.045Z,96089.03
2022-08-17T09:14:45.048Z,96090.59
2022-08-17T09:17:17.147Z,96101.63
2022-08-17T09:19:49.795Z,95940.56
2022-08-17T09:22:22.204Z,96083.78
2022-08-17T09:24:56.034Z,95913.75
2022-08-17T09:27:26.388Z,96090.13
2022-08-17T09:29:57.819Z,96093.84
2022-08-17T09:32:27.903Z,96106.03
2022-08-17T09:35:02.130Z,96098.44
2022-08-17T09:37:32.454Z,96096.97
2022-08-17T09:40:05.608Z,96105.19
2022-08-17T09:42:34.546Z,96116.56
2022-08-17T09:45:09.457Z,96114.97
2022-08-17T09:47:45.619Z,96110.16
2022-08-17T09:50:17.824Z,96108.41
2022-08-17T09:53:05.490Z,96115.97
2022-08-17T09:55:40.015Z,96138.03
2022-08-17T09:58:09.486Z,96129.22
2022-08-17T10:00:39.166Z,96114.72
2022-08-17T10:03:16.408Z,96122.78
2022-08-17T10:05:49.778Z,96130.59
2022-08-17T10:08:25.701Z,96123.69
2022-08-17T10:10:58.923Z,96108.81
2022-08-17T10:13:32.681Z,96107.78
2022-08-17T10:16:05.425Z,96103.22
2022-08-17T10:18:38.177Z,96102.09
2022-08-17T10:21:27.141Z,96109.47
2022-08-17T10:24:13.951Z,96097.69
2022-08-17T10:26:56.614Z,96092.69
2022-08-17T10:29:28.957Z,96103.91
2022-08-17T10:31:59.192Z,96112.63
2022-08-17T10:34:38.803Z,96115.78
2022-08-17T10:37:15.838Z,96130.28
2022-08-17T10:39:52.752Z,96147.34
2022-08-17T10:42:32.432Z,96164.22
2022-08-17T10:45:05.073Z,96165.25
2022-08-17T10:47:59.089Z,96181.09
2022-08-17T10:50:59.671Z,96158.25
2022-08-17T10:53:46.996Z,96156.72
2022-08-17T10:56:23.541Z,96145.44
2022-08-17T10:58:55.120Z,96157.56
2022-08-17T11:01:24.175Z,96164.88
2022-08-17T11:03:56.761Z,96199.34
2022-08-17T11:06:27.225Z,96203.50
2022-08-17T11:09:05.206Z,96201.94
2022-08-17T11:11:44.036Z,96189.69
2022-08-17T11:14:17.253Z,96194.97
2022-08-17T11:16:50.092Z,96192.47
2022-08-17T11:19:22.439Z,96184.75
2022-08-17T11:21:57.918Z,96177.66
2022-08-17T11:24:30.709Z,96174.31
2022-08-17T11:27:12.287Z,96170.75
2022-08-17T11:29:52.928Z,96162.41
2022-08-17T11:32:33.556Z,96157.78
2022-08-17T11:35:13.500Z,96164.03
2022-08-17T11:37:43.074Z,96154.22
2022-08-17T11:40:14.643Z,96165.38
2022-08-17T11:43:08.822Z,96165.41
2022-08-17T11:45:46.185Z,96167.53
2022-08-17T11:48:33.267Z,96185.91
2022-08-17T11:51:19.397Z,96180.63
2022-08-17T11:54:21.377Z,96177.34
2022-08-17T11:56:46.908Z,96175.50
2022-08-17T11:59:35.603Z,96173.53
2022-08-17T12:02:06.693Z,96154.84
2022-08-17T12:04:35.866Z,96154.09
2022-08-17T12:07:08.376Z,96144.56
2022-08-17T12:09:40.833Z,96140.72
2022-08-17T12:12:14.305Z,96137.16
2022-08-17T12:15:08.854Z,96126.28
2022-08-17T12:17:40.814Z,96120.97
2022-08-17T12:20:11.099Z,96111.00
2022-08-17T12:22:42.244Z,96120.72
2022-08-17T12:25:11.464Z,96123.44
2022-08-17T12:27:52.986Z,96116.09
2022-08-17T12:30:28.133Z,96104.28
2022-08-17T12:32:57.906Z,96101.09
2022-08-17T12:35:29.661Z,96108.28
2022-08-17T12:37:59.789Z,96117.22
2022-08-17T12:40:32.154Z,96105.28
2022-08-17T12:43:00.829Z,96098.88
2022-08-17T12:45:33.420Z,95908.66
2022-08-17T12:48:07.872Z,96081.31
2022-08-17T12:50:37.143Z,96076.88
2022-08-17T12:53:14.087Z,96077.44
2022-08-17T12:55:43.288Z,96071.09
2022-08-17T12:58:14.510Z,96070.22
2022-08-17T13:00:47.464Z,96064.22
2022-08-17T13:03:19.407Z,96066.34
2022-08-17T13:05:55.728Z,96070.44
2022-08-17T13:08:24.743Z,96069.09
2022-08-17T13:10:55.716Z,96058.63
2022-08-17T13:13:28.075Z,96054.00
2022-08-17T13:15:56.750Z,96057.19
2022-08-17T13:18:40.187Z,96055.66
2022-08-17T13:21:10.775Z,96059.47
2022-08-17T13:23:39.192Z,96053.31
2022-08-17T13:26:19.323Z,96050.13
2022-08-17T13:28:48.512Z,96049.03
2022-08-17T13:31:24.101Z,96051.75
2022-08-17T13:33:53.168Z,96052.09
2022-08-17T13:36:32.060Z,96047.03
2022-08-17T13:39:09.385Z,96043.94
2022-08-17T13:41:38.465Z,96043.19
2022-08-17T13:44:21.063Z,96054.03
2022-08-17T13:46:52.510Z,96049.03
2022-08-17T13:49:41.910Z,96041.44
2022-08-17T13:52:20.909Z,96016.72
2022-08-17T13:54:55.679Z,96027.66
2022-08-17T13:57:25.787Z,96015.88
2022-08-17T13:59:55.930Z,96011.22
2022-08-17T14:02:27.595Z,96019.41
2022-08-17T14:05:00.748Z,96011.91
2022-08-17T14:07:30.672Z,95999.06
2022-08-17T14:10:03.445Z,95993.41
2022-08-17T14:12:33.768Z,95980.22
2022-08-17T14:15:01.626Z,95980.09
2022-08-17T14:17:34.974Z,96000.78
2022-08-17T14:20:10.884Z,95991.16
2022-08-17T14:22:39.532Z,95989.91
2022-08-17T14:25:10.272Z,95973.00
2022-08-17T14:27:52.351Z,95979.50
2022-08-17T14:30:21.589Z,95982.97
2022-08-17T14:32:52.989Z,95981.72
2022-08-17T14:35:24.485Z,95982.75
2022-08-17T14:37:52.606Z,95974.56
2022-08-17T14:40:24.646Z,95971.06
2022-08-17T14:42:53.933Z,95976.28
2022-08-17T14:45:29.980Z,95974.19
2022-08-17T14:48:03.704Z,95987.88
2022-08-17T14:50:35.283Z,95987.13
2022-08-17T14:53:04.490Z,95987.31
2022-08-17T14:55:32.591Z,95983.19
2022-08-17T14:58:00.568Z,95991.88
2022-08-17T15:00:28.686Z,95988.22
2022-08-17T15:02:58.078Z,95981.44
2022-08-17T15:05:31.957Z,95990.03
2022-08-17T15:08:01.297Z,95986.16
2022-08-17T15:10:31.600Z,95986.88
2022-08-17T15:13:00.255Z,95993.19
2022-08-17T15:15:28.355Z,96016.66
2022-08-17T15:17:56.812Z,95981.63
2022-08-17T15:20:27.298Z,95977.31
2022-08-17T15:22:57.277Z,95960.97
2022-08-17T15:25:27.872Z,95965.22
2022-08-17T15:27:58.656Z,95975.75
2022-08-17T15:30:27.096Z,95967.59
2022-08-17T15:32:55.545Z,95972.66
2022-08-17T15:35:28.946Z,95983.56
2022-08-17T15:38:00.003Z,95982.75
2022-08-17T15:40:36.757Z,95976.97
2022-08-17T15:43:05.898Z,95971.13
2022-08-17T15:45:33.583Z,95978.50
2022-08-17T15:48:01.307Z,95962.91
2022-08-17T15:50:32.044Z,95973.75
2022-08-17T15:53:00.419Z,95976.13
2022-08-17T15:55:28.812Z,95975.28
2022-08-17T15:57:57.841Z,95983.41
2022-08-17T16:00:28.125Z,95981.47
2022-08-17T16:03:46.252Z,95977.53
2022-08-17T16:05:44.063Z,95974.81
2022-08-17T16:08:18.500Z,95970.91
2022-08-17T16:10:48.548Z,95966.94
2022-08-17T16:13:18.207Z,95967.28
2022-08-17T16:15:49.718Z,95963.75
2022-08-17T16:18:24.803Z,95954.75
2022-08-17T16:20:53.290Z,95958.59
2022-08-17T16:23:27.519Z,95952.00
2022-08-17T16:25:55.326Z,95957.09
2022-08-17T16:28:35.730Z,95954.00
2022-08-17T16:31:04.370Z,95952.13
2022-08-17T16:33:32.620Z,95951.28
2022-08-17T16:36:01.051Z,95948.16
2022-08-17T16:38:28.691Z,95957.88
2022-08-17T16:40:58.725Z,95964.94
2022-08-17T16:43:31.282Z,95967.25
2022-08-17T16:46:00.778Z,95968.00
2022-08-17T16:48:32.900Z,95972.25
2022-08-17T16:51:04.316Z,95972.63
2022-08-17T16:53:32.556Z,95971.91
2022-08-17T16:56:00.229Z,95963.84
2022-08-17T16:58:32.100Z,95961.09
2022-08-17T17:01:02.522Z,95956.00
2022-08-17T17:03:30.826Z,95939.25
2022-08-17T17:06:00.553Z,95934.13
2022-08-17T17:08:33.274Z,95937.47
2022-08-17T17:11:03.958Z,95938.28
2022-08-17T17:13:38.970Z,95948.41
2022-08-17T17:16:14.243Z,95948.44
2022-08-17T17:18:42.690Z,95946.94
2022-08-17T17:21:11.771Z,95955.09
2022-08-17T17:23:42.929Z,95960.13
2022-08-17T17:26:21.939Z,95959.25
2022-08-17T17:28:56.332Z,95964.59
2022-08-17T17:31:24.648Z,95956.06
2022-08-17T17:33:53.510Z,95948.97
2022-08-17T17:36:23.210Z,95948.94
2022-08-17T17:38:51.548Z,95942.72
2022-08-17T17:41:25.974Z,95938.09
2022-08-17T17:43:57.985Z,95941.09
2022-08-17T17:46:31.369Z,95938.38
2022-08-17T17:48:59.213Z,95933.00
2022-08-17T17:52:09.605Z,95931.81
2022-08-17T17:54:25.293Z,95930.84
2022-08-17T17:56:55.668Z,95931.44
2022-08-17T17:59:26.662Z,95927.78
2022-08-17T18:01:55.436Z,95709.81
2022-08-17T18:04:27.745Z,95937.28
2022-08-17T18:06:59.347Z,95935.50
2022-08-17T18:09:33.749Z,95938.34
2022-08-17T18:12:09.412Z,95936.03
2022-08-17T18:14:43.733Z,95934.06
2022-08-17T18:17:11.998Z,95931.94
2022-08-17T18:19:40.086Z,95938.81
2022-08-17T18:22:14.512Z,95936.78
2022-08-17T18:24:43.781Z,95938.66
2022-08-17T18:27:23.250Z,95934.13
2022-08-17T18:29:53.320Z,95944.97
2022-08-17T18:32:26.152Z,95932.31
2022-08-17T18:34:55.110Z,95941.22
2022-08-17T18:37:36.512Z,95948.88
2022-08-17T18:40:23.437Z,95946.66
2022-08-17T18:42:57.536Z,95948.75
2022-08-17T18:45:33.465Z,95955.22
2022-08-17T18:48:03.940Z,95950.59
2022-08-17T18:50:36.290Z,95951.44
2022-08-17T18:53:21.414Z,95950.25
2022-08-17T18:55:57.113Z,95952.91
2022-08-17T18:58:27.879Z,95966.38
2022-08-17T19:00:56.910Z,95969.75
2022-08-17T19:03:25.740Z,95972.94
2022-08-17T19:05:56.408Z,95978.22
2022-08-17T19:08:25.469Z,95981.38
2022-08-17T19:10:57.323Z,95980.22
2022-08-17T19:13:30.914Z,95984.78
2022-08-17T19:16:07.793Z,95993.63
2022-08-17T19:18:46.699Z,95986.53
2022-08-17T19:21:16.407Z,95977.69
2022-08-17T19:23:53.337Z,95975.75
2022-08-17T19:26:53.498Z,95978.75
2022-08-17T19:29:12.990Z,95969.88
2022-08-17T19:31:47.569Z,95978.09
2022-08-17T19:34:30.167Z,95972.97
2022-08-17T19:37:03.529Z,95970.09
2022-08-17T19:39:38.291Z,95972.06
2022-08-17T19:42:08.904Z,95967.97
2022-08-17T19:44:45.815Z,95971.72
2022-08-17T19:47:30.545Z,95969.88
2022-08-17T19:50:04.993Z,95966.81
2022-08-17T19:52:41.919Z,95969.19
2022-08-17T19:55:11.219Z,95976.22
2022-08-17T19:57:42.290Z,95973.28
2022-08-17T20:00:11.932Z,95964.00
2022-08-17T20:02:43.214Z,95975.81
2022-08-17T20:05:15.681Z,95992.91
2022-08-17T20:07:44.558Z,95990.19
2022-08-17T20:10:14.640Z,95997.28
2022-08-17T20:12:46.029Z,95981.66
2022-08-17T20:15:18.087Z,95979.66
2022-08-17T20:17:50.504Z,95974.13
2022-08-17T20:20:21.885Z,95980.97
2022-08-17T20:22:54.394Z,95750.22
2022-08-17T20:25:30.522Z,95987.50
2022-08-17T20:28:03.833Z,95978.31
2022-08-17T20:30:37.469Z,95983.25
2022-08-17T20:33:13.115Z,95980.00
2022-08-17T20:35:42.850Z,95979.28
2022-08-17T20:38:12.233Z,95985.41
2022-08-17T20:40:40.584Z,95982.19
2022-08-17T20:43:35.525Z,95991.22
2022-08-17T20:46:08.192Z,95993.16
2022-08-17T20:48:41.116Z,95995.06
2022-08-17T20:51:20.810Z,95992.63
2022-08-17T20:54:00.656Z,95995.31
2022-08-17T20:57:01.526Z,95997.13
2022-08-17T20:59:52.499Z,95999.28
2022-08-17T21:02:21.208Z,95995.63
2022-08-17T21:05:00.763Z,96017.50
2022-08-17T21:07:30.139Z,96006.28
2022-08-17T21:10:14.809Z,96008.16
2022-08-17T21:12:49.080Z,96015.03
2022-08-17T21:15:28.596Z,96002.66
2022-08-17T21:17:59.194Z,96005.78
2022-08-17T21:20:32.189Z,96009.56
2022-08-17T21:23:30.393Z,96012.50
2022-08-17T21:26:08.679Z,96023.63
2022-08-17T21:29:00.772Z,96014.50
2022-08-17T21:31:34.210Z,96010.81
2022-08-17T21:34:22.392Z,96016.63
2022-08-17T21:36:51.601Z,96013.59
2022-08-17T21:39:32.480Z,96017.47
2022-08-17T21:42:01.367Z,96028.41
2022-08-17T21:44:32.051Z,96029.56
2022-08-17T21:47:13.100Z,96025.72
2022-08-17T21:49:40.862Z,96024.56
2022-08-17T21:52:13.040Z,95796.19
2022-08-17T21:54:42.741Z,96035.28
2022-08-17T21:57:16.339Z,96047.84
2022-08-17T21:59:46.773Z,96073.03
2022-08-17T22:02:18.427Z,96086.22
2022-08-17T22:04:47.538Z,96091.50
2022-08-17T22:07:16.702Z,96104.59
2022-08-17T22:09:47.648Z,96122.47
2022-08-17T22:12:17.027Z,96133.13
2022-08-17T22:14:52.821Z,96149.97
2022-08-17T22:17:23.265Z,96156.38
2022-08-17T22:19:51.652Z,96167.63
2022-08-17T22:22:26.855Z,96179.50
2022-08-17T22:24:57.511Z,96188.03
2022-08-17T22:27:40.308Z,96197.56
2022-08-17T22:30:17.287Z,96211.13
2022-08-17T22:32:47.041Z,96229.84
2022-08-17T22:35:32.614Z,96233.88
2022-08-17T22:38:15.095Z,96248.88
2022-08-17T22:40:44.623Z,96240.28
2022-08-17T22:43:12.620Z,96230.25
2022-08-17T22:45:51.475Z,96220.94
2022-08-17T22:48:22.426Z,96222.75
2022-08-17T22:51:12.759Z,96219.19
2022-08-17T22:54:03.808Z,96211.75
2022-08-17T22:56:50.622Z,96200.28
2022-08-17T22:59:34.134Z,96209.91
2022-08-17T23:02:16.064Z,96213.44
2022-08-17T23:04:44.861Z,96206.63
2022-08-17T23:07:12.619Z,96203.22
2022-08-17T23:09:40.514Z,96204.59
2022-08-17T23:12:15.871Z,96191.38
2022-08-17T23:14:46.362Z,96202.44
2022-08-17T23:17:16.835Z,96199.91
2022-08-17T23:19:45.522Z,96188.81
2022-08-17T23:22:13.169Z,96186.59
2022-08-17T23:24:43.451Z,96188.59
2022-08-17T23:27:14.184Z,95954.44
2022-08-17T23:29:42.219Z,96179.78
2022-08-17T23:32:11.182Z,96178.72
2022-08-17T23:34:39.604Z,96182.97
2022-08-17T23:37:07.642Z,96174.91
2022-08-17T23:39:36.186Z,96178.94
2022-08-17T23:42:05.588Z,96173.94
2022-08-17T23:44:35.364Z,96182.75
2022-08-17T23:47:04.675Z,96187.50
2022-08-17T23:49:32.506Z,96196.13
2022-08-17T23:52:04.237Z,96203.94
2022-08-17T23:54:34.183Z,96210.78
2022-08-17T23:57:01.932Z,96212.28
2022-08-17T23:59:30.077Z,96212.81
